createdAt,value
2019-05-01T00:05:25.870Z,10.1
2019-05-01T00:32:05.781Z,9.9
2019-05-01T01:12:13.104Z,9.7
2019-05-01T01:25:32.480Z,9.7
2019-05-01T01:38:06.437Z,9.6
2019-05-01T01:51:14.873Z,9.5
2019-05-01T02:04:46.797Z,9.5
2019-05-01T02:15:33.633Z,9.4
2019-05-01T02:28:22.618Z,9.4
2019-05-01T02:41:50.544Z,9.4
2019-05-01T02:54:30.288Z,9.4
2019-05-01T03:19:55.794Z,9.3
2019-05-01T03:32:15.852Z,9.2
2019-05-01T03:44:06.461Z,9.2
2019-05-01T03:56:43.759Z,9.1
2019-05-01T04:08:12.043Z,9.2
2019-05-01T04:19:48.273Z,9.2
2019-05-01T04:32:27.274Z,9.1
2019-05-01T04:46:03.037Z,9.0
2019-05-01T04:58:49.107Z,9.0
2019-05-01T05:09:45.158Z,9.0
2019-05-01T05:21:54.782Z,9.0
2019-05-01T05:35:17.714Z,9.1
2019-05-01T06:01:51.214Z,9.2
2019-05-01T06:15:22.591Z,9.3
2019-05-01T06:57:24.062Z,9.7
2019-05-01T07:11:42.663Z,10.3
2019-05-01T07:24:16.870Z,10.5
2019-05-01T07:49:42.576Z,11.1
2019-05-01T08:00:15.685Z,11.1
2019-05-01T08:11:04.874Z,11.4
2019-05-01T08:34:25.259Z,12.1
2019-05-01T08:45:40.551Z,12.1
2019-05-01T08:56:03.797Z,12.6
2019-05-01T09:06:18.674Z,13.2
2019-05-01T09:17:04.038Z,15.5
2019-05-01T09:38:38.420Z,17.2
2019-05-01T09:48:54.403Z,19.2
2019-05-01T10:00:48.490Z,22.3
2019-05-01T10:12:34.072Z,24.1
2019-05-01T10:23:39.026Z,25.5
2019-05-01T10:34:38.586Z,26.5
2019-05-01T10:45:26.452Z,27.3
2019-05-01T10:55:40.174Z,27.3
2019-05-01T11:06:25.412Z,27.9
2019-05-01T11:16:38.925Z,27.9
2019-05-01T11:26:53.473Z,28.3
2019-05-01T11:38:14.966Z,28.4
2019-05-01T11:49:27.231Z,28.2
2019-05-01T12:00:20.462Z,28.0
2019-05-01T12:11:26.838Z,27.8
2019-05-01T12:22:25.626Z,27.5
2019-05-01T12:32:43.103Z,27.5
2019-05-01T12:44:10.825Z,27.1
2019-05-01T12:56:43.200Z,26.8
2019-05-01T13:32:24.901Z,25.8
2019-05-01T14:16:36.923Z,25.8
2019-05-01T15:29:26.311Z,23.0
2019-05-01T15:39:40.679Z,23.0
2019-05-01T19:42:04.688Z,14.1
2019-05-01T20:08:09.542Z,13.0
2019-05-01T20:20:54.262Z,12.6
2019-05-01T20:34:19.322Z,12.3
